createdAt,value
2019-04-27T00:00:35.366Z,97243.09
2019-04-27T00:01:45.347Z,97250.20
2019-04-27T00:03:06.210Z,97251.00
2019-04-27T00:04:16.246Z,97231.25
2019-04-27T00:05:38.605Z,97241.41
2019-04-27T00:06:29.968Z,97248.83
2019-04-27T00:07:55.500Z,97254.88
2019-04-27T00:08:47.855Z,97257.93
2019-04-27T00:09:50.184Z,97269.14
2019-04-27T00:10:45.556Z,97263.41
2019-04-27T00:11:47.035Z,97267.53
2019-04-27T00:12:37.621Z,97268.90
2019-04-27T00:13:28.285Z,97260.67
2019-04-27T00:14:18.732Z,97262.61
2019-04-27T00:15:09.225Z,97258.17
2019-04-27T00:16:19.233Z,97261.16
2019-04-27T00:17:47.192Z,97251.31
2019-04-27T00:19:01.117Z,97255.92
2019-04-27T00:20:10.754Z,97255.33
2019-04-27T00:21:09.744Z,97257.51
2019-04-27T00:22:03.396Z,97252.38
2019-04-27T00:22:57.118Z,97252.38
2019-04-27T00:23:48.002Z,97252.94
2019-04-27T00:24:38.881Z,97255.92
2019-04-27T00:25:29.349Z,97253.18
2019-04-27T00:26:19.939Z,97253.39
2019-04-27T00:27:10.772Z,97252.27
2019-04-27T00:28:00.422Z,97245.41
2019-04-27T00:28:51.413Z,97254.93
2019-04-27T00:29:43.181Z,97241.22
2019-04-27T00:30:33.382Z,97248.85
2019-04-27T00:31:23.491Z,97246.92
2019-04-27T00:32:13.743Z,97250.95
2019-04-27T00:33:05.333Z,97259.42
2019-04-27T00:33:55.944Z,97259.42
2019-04-27T00:34:45.968Z,97264.56
2019-04-27T00:35:41.284Z,97259.88
2019-04-27T00:36:36.261Z,97272.47
2019-04-27T00:37:53.089Z,97270.53
2019-04-27T00:39:03.528Z,97260.13
2019-04-27T00:40:07.930Z,97264.70
2019-04-27T00:41:04.662Z,97267.23
2019-04-27T00:41:54.987Z,97268.25
2019-04-27T00:42:44.723Z,97263.11
2019-04-27T00:43:36.263Z,97270.78
2019-04-27T00:44:26.567Z,97261.95
2019-04-27T00:45:16.744Z,97271.55
2019-04-27T00:46:07.264Z,97262.55
2019-04-27T00:46:57.940Z,97268.25
2019-04-27T00:47:56.415Z,97264.13
2019-04-27T00:48:38.035Z,97249.86
2019-04-27T00:49:28.768Z,97260.83
2019-04-27T00:50:21.466Z,97256.95
2019-04-27T00:51:14.253Z,97256.39
2019-04-27T00:52:01.704Z,97259.38
2019-04-27T00:52:53.189Z,97247.84
2019-04-27T00:53:43.509Z,97260.96
2019-04-27T00:54:34.011Z,97250.80
2019-04-27T00:55:23.468Z,97252.98
2019-04-27T00:56:30.989Z,97242.81
2019-04-27T00:57:43.700Z,97244.99
2019-04-27T00:58:48.968Z,97248.78
2019-04-27T00:59:50.769Z,97244.19
2019-04-27T01:01:00.385Z,97249.11
2019-04-27T01:02:00.584Z,97245.80
2019-04-27T01:03:03.817Z,97243.94
2019-04-27T01:03:59.325Z,97246.93
2019-04-27T01:04:49.606Z,97234.34
2019-04-27T01:05:39.302Z,97243.94
2019-04-27T01:06:29.349Z,97252.17
2019-04-27T01:07:19.962Z,97251.36
2019-04-27T01:08:09.846Z,97241.20
2019-04-27T01:08:59.559Z,97248.63
2019-04-27T01:09:49.514Z,97247.25
2019-04-27T01:10:40.112Z,97239.38
2019-04-27T01:11:30.707Z,97236.63
2019-04-27T01:12:21.189Z,97235.26
2019-04-27T01:13:13.121Z,97227.84
2019-04-27T01:14:01.413Z,97234.13
2019-04-27T01:14:53.503Z,97234.13
2019-04-27T01:15:43.049Z,97231.03
2019-04-27T01:16:32.311Z,97231.03
2019-04-27T01:17:22.306Z,97226.92
2019-04-27T01:18:15.411Z,97235.95
2019-04-27T01:19:02.941Z,97241.44
2019-04-27T01:19:53.470Z,97226.36
2019-04-27T01:20:43.759Z,97236.20
2019-04-27T01:21:34.006Z,97231.28
2019-04-27T01:22:24.830Z,97227.73
2019-04-27T01:23:14.876Z,97235.95
2019-04-27T01:24:05.195Z,97234.02
2019-04-27T01:24:55.280Z,97240.88
2019-04-27T01:26:07.473Z,97235.64
2019-04-27T01:27:18.929Z,97236.77
2019-04-27T01:28:13.743Z,97237.33
2019-04-27T01:29:08.309Z,97237.57
2019-04-27T01:29:58.911Z,97245.56
2019-04-27T01:30:54.381Z,97235.71
2019-04-27T01:31:44.262Z,97240.39
2019-04-27T01:32:34.433Z,97243.94
2019-04-27T01:33:24.375Z,97239.61
2019-04-27T01:34:15.045Z,97245.10
2019-04-27T01:35:04.681Z,97231.95
2019-04-27T01:35:54.797Z,97243.73
2019-04-27T01:36:44.720Z,97245.66
2019-04-27T01:37:34.682Z,97251.95
2019-04-27T01:38:25.406Z,97246.47
2019-04-27T01:39:15.470Z,97253.54
2019-04-27T01:40:22.937Z,97242.36
2019-04-27T01:41:12.526Z,97253.54
2019-04-27T01:42:02.725Z,97249.99
2019-04-27T01:42:53.248Z,97250.80
2019-04-27T01:43:43.001Z,97263.14
2019-04-27T01:44:33.724Z,97247.25
2019-04-27T01:45:24.366Z,97248.63
2019-04-27T01:46:14.843Z,97259.27
2019-04-27T01:47:04.867Z,97257.90
2019-04-27T01:47:54.959Z,97248.06
2019-04-27T01:48:45.315Z,97251.61
2019-04-27T01:49:36.267Z,97263.38
2019-04-27T01:50:29.010Z,97252.41
2019-04-27T01:51:17.166Z,97250.23
2019-04-27T01:52:06.884Z,97255.40
2019-04-27T01:52:58.618Z,97259.27
2019-04-27T01:53:46.716Z,97265.00
2019-04-27T01:54:36.710Z,97258.14
2019-04-27T01:55:27.266Z,97249.91
2019-04-27T01:56:19.300Z,97246.36
2019-04-27T01:57:10.311Z,97253.47
2019-04-27T01:57:59.519Z,97253.70
2019-04-27T01:58:50.809Z,97254.48
2019-04-27T01:59:40.876Z,97264.68
2019-04-27T02:00:49.415Z,97266.61
2019-04-27T02:01:58.701Z,97271.30
2019-04-27T02:02:52.121Z,97260.89
2019-04-27T02:04:20.184Z,97273.80
2019-04-27T02:05:33.468Z,97275.41
2019-04-27T02:06:23.684Z,97269.19
2019-04-27T02:07:14.471Z,97277.42
2019-04-27T02:08:04.612Z,97275.03
2019-04-27T02:08:55.704Z,97276.40
2019-04-27T02:09:45.326Z,97280.27
2019-04-27T02:10:35.896Z,97273.98
2019-04-27T02:11:28.636Z,97284.38
2019-04-27T02:12:19.253Z,97282.77
2019-04-27T02:13:08.964Z,97274.54
2019-04-27T02:13:59.422Z,97284.14
2019-04-27T02:14:49.231Z,97281.16
2019-04-27T02:15:40.030Z,97278.20
2019-04-27T02:16:30.818Z,97276.02
2019-04-27T02:17:21.268Z,97284.00
2019-04-27T02:18:11.190Z,97278.27
2019-04-27T02:19:01.069Z,97281.82
2019-04-27T02:19:51.885Z,97281.82
2019-04-27T02:20:44.344Z,97280.77
2019-04-27T02:21:32.651Z,97273.35
2019-04-27T02:22:22.672Z,97287.41
2019-04-27T02:23:13.013Z,97280.56
2019-04-27T02:24:02.882Z,97282.25
2019-04-27T02:24:53.002Z,97281.44
2019-04-27T02:25:43.870Z,97279.83
2019-04-27T02:26:34.352Z,97275.71
2019-04-27T02:27:24.568Z,97281.20
2019-04-27T02:28:40.335Z,97278.80
2019-04-27T02:29:50.433Z,97284.29
2019-04-27T02:31:05.229Z,97281.30
2019-04-27T02:32:29.130Z,97277.75
2019-04-27T02:33:40.334Z,97277.51
2019-04-27T02:34:32.272Z,97277.51
2019-04-27T02:35:23.031Z,97274.52
2019-04-27T02:36:15.161Z,97273.75
2019-04-27T02:37:03.713Z,97273.50
2019-04-27T02:37:54.589Z,97278.50
2019-04-27T02:38:44.533Z,97265.28
2019-04-27T02:39:35.153Z,97268.26
2019-04-27T02:40:53.600Z,97269.62
2019-04-27T02:41:43.609Z,97268.02
2019-04-27T02:42:42.236Z,97268.83
2019-04-27T02:43:39.902Z,97265.17
2019-04-27T02:44:35.264Z,97260.25
2019-04-27T02:45:25.076Z,97262.19
2019-04-27T02:46:15.529Z,97267.91
2019-04-27T02:47:06.253Z,97267.91
2019-04-27T02:47:55.889Z,97262.42
2019-04-27T02:48:58.661Z,97260.81
2019-04-27T02:49:36.134Z,97264.92
2019-04-27T02:50:26.117Z,97269.62
2019-04-27T02:51:22.089Z,97257.51
2019-04-27T02:52:34.035Z,97250.44
2019-04-27T02:53:41.858Z,97261.05
2019-04-27T02:54:32.389Z,97257.51
2019-04-27T02:55:22.509Z,97256.70
2019-04-27T02:56:13.272Z,97254.55
2019-04-27T02:57:04.421Z,97260.81
2019-04-27T02:57:54.493Z,97252.02
2019-04-27T02:58:44.940Z,97249.28
2019-04-27T02:59:34.690Z,97249.52
2019-04-27T03:00:24.999Z,97248.16
2019-04-27T03:01:15.369Z,97242.67
2019-04-27T03:02:25.068Z,97245.89
2019-04-27T03:03:15.396Z,97245.89
2019-04-27T03:04:05.216Z,97245.34
2019-04-27T03:04:54.868Z,97241.22
2019-04-27T03:05:45.348Z,97242.34
2019-04-27T03:06:35.133Z,97245.09
2019-04-27T03:07:26.452Z,97251.59
2019-04-27T03:08:19.857Z,97241.22
2019-04-27T03:09:10.228Z,97245.09
2019-04-27T03:09:59.608Z,97241.22
2019-04-27T03:10:50.277Z,97244.52
2019-04-27T03:11:39.520Z,97239.05
2019-04-27T03:12:33.033Z,97239.25
2019-04-27T03:13:30.408Z,97247.48
2019-04-27T03:14:56.344Z,97233.20
2019-04-27T03:16:06.370Z,97235.95
2019-04-27T03:17:04.612Z,97244.98
2019-04-27T03:18:32.234Z,97233.77
2019-04-27T03:19:31.650Z,97232.40
2019-04-27T03:20:35.308Z,97245.55
2019-04-27T03:21:29.694Z,97229.77
2019-04-27T03:22:31.342Z,97238.31
2019-04-27T03:23:21.556Z,97241.86
2019-04-27T03:24:12.213Z,97235.36
2019-04-27T03:25:21.686Z,97239.22
2019-04-27T03:26:43.852Z,97235.11
2019-04-27T03:27:34.013Z,97234.30
2019-04-27T03:28:24.409Z,97230.52
2019-04-27T03:29:14.747Z,97235.11
2019-04-27T03:30:04.736Z,97223.66
2019-04-27T03:30:55.313Z,97230.27
2019-04-27T03:31:47.293Z,97223.41
2019-04-27T03:32:35.945Z,97232.45
2019-04-27T03:33:26.778Z,97237.36
2019-04-27T03:34:21.767Z,97239.55
2019-04-27T03:35:12.332Z,97234.06
2019-04-27T03:36:02.076Z,97234.87
2019-04-27T03:36:49.331Z,97235.67
2019-04-27T03:37:40.410Z,97236.24
2019-04-27T03:38:30.113Z,97238.17
2019-04-27T03:39:20.005Z,97227.45
2019-04-27T03:40:10.311Z,97237.61
2019-04-27T03:41:00.527Z,97234.55
2019-04-27T03:41:52.306Z,97243.34
2019-04-27T03:42:40.404Z,97239.22
2019-04-27T03:43:30.323Z,97237.85
2019-04-27T03:44:20.589Z,97236.48
2019-04-27T03:45:11.178Z,97240.59
2019-04-27T03:46:02.482Z,97228.82
2019-04-27T03:46:52.384Z,97232.13
2019-04-27T03:47:42.876Z,97221.97
2019-04-27T03:48:33.627Z,97224.14
2019-04-27T03:49:34.578Z,97238.66
2019-04-27T03:50:16.385Z,97228.82
2019-04-27T03:51:29.955Z,97232.13
2019-04-27T03:52:40.296Z,97235.67
2019-04-27T03:54:05.545Z,97231.88
2019-04-27T03:55:10.471Z,97235.19
2019-04-27T03:56:26.004Z,97238.84
2019-04-27T03:57:24.800Z,97239.16
2019-04-27T03:58:21.736Z,97240.08
2019-04-27T03:59:21.732Z,97237.09
2019-04-27T04:00:16.278Z,97247.81
2019-04-27T04:01:06.312Z,97240.96
2019-04-27T04:01:56.593Z,97244.27
2019-04-27T04:02:47.026Z,97240.47
2019-04-27T04:03:39.294Z,97248.70
2019-04-27T04:04:29.660Z,97242.19
2019-04-27T04:05:16.863Z,97236.70
2019-04-27T04:06:06.450Z,97238.89
2019-04-27T04:07:06.691Z,97238.08
2019-04-27T04:07:57.627Z,97235.91
2019-04-27T04:08:50.579Z,97231.79
2019-04-27T04:09:40.997Z,97237.52
2019-04-27T04:10:31.385Z,97229.61
2019-04-27T04:11:30.386Z,97229.72
2019-04-27T04:12:44.943Z,97236.57
2019-04-27T04:13:41.877Z,97236.89
2019-04-27T04:14:31.746Z,97234.95
2019-04-27T04:15:34.912Z,97228.17
2019-04-27T04:16:44.509Z,97238.33
2019-04-27T04:17:34.753Z,97238.12
2019-04-27T04:18:25.246Z,97237.63
2019-04-27T04:19:15.344Z,97236.02
2019-04-27T04:20:05.508Z,97244.23
2019-04-27T04:20:56.198Z,97237.95
2019-04-27T04:21:46.748Z,97249.50
2019-04-27T04:22:36.900Z,97246.52
2019-04-27T04:23:26.923Z,97242.66
2019-04-27T04:24:19.716Z,97243.78
2019-04-27T04:25:06.852Z,97247.89
2019-04-27T04:25:59.512Z,97254.74
2019-04-27T04:26:50.225Z,97249.26
2019-04-27T04:27:40.101Z,97251.19
2019-04-27T04:28:29.604Z,97249.26
2019-04-27T04:29:20.193Z,97247.89
2019-04-27T04:30:09.742Z,97246.77
2019-04-27T04:31:00.462Z,97255.55
2019-04-27T04:31:50.365Z,97242.16
2019-04-27T04:32:39.618Z,97257.48
2019-04-27T04:33:30.419Z,97252.56
2019-04-27T04:34:20.050Z,97251.19
2019-04-27T04:35:21.149Z,97247.89
2019-04-27T04:36:10.073Z,97251.75
2019-04-27T04:37:00.418Z,97250.07
2019-04-27T04:37:53.039Z,97251.19
2019-04-27T04:38:40.735Z,97250.07
2019-04-27T04:39:31.233Z,97254.98
2019-04-27T04:40:23.372Z,97258.85
2019-04-27T04:41:15.989Z,97246.17
2019-04-27T04:42:11.897Z,97252.25
2019-04-27T04:43:21.505Z,97251.90
2019-04-27T04:44:15.699Z,97250.53
2019-04-27T04:45:14.202Z,97252.95
2019-04-27T04:46:23.225Z,97256.50
2019-04-27T04:47:27.692Z,97251.83
2019-04-27T04:48:20.062Z,97261.06
2019-04-27T04:49:09.743Z,97260.51
2019-04-27T04:50:11.310Z,97258.25
2019-04-27T04:50:51.675Z,97260.44
2019-04-27T04:51:41.746Z,97264.55
2019-04-27T04:52:31.591Z,97265.56
2019-04-27T04:53:22.534Z,97267.42
2019-04-27T04:54:14.507Z,97260.81
2019-04-27T04:55:05.544Z,97262.41
2019-04-27T04:55:56.025Z,97256.04
2019-04-27T04:56:46.432Z,97264.50
2019-04-27T04:57:36.401Z,97259.48
2019-04-27T04:58:26.181Z,97258.59
2019-04-27T04:59:16.190Z,97267.88
2019-04-27T05:00:09.678Z,97265.03
2019-04-27T05:00:59.611Z,97257.05
2019-04-27T05:01:49.699Z,97265.73
2019-04-27T05:02:39.618Z,97273.32
2019-04-27T05:03:28.713Z,97275.15
2019-04-27T05:04:19.366Z,97266.36
2019-04-27T05:05:09.504Z,97265.47
2019-04-27T05:06:00.019Z,97264.91
2019-04-27T05:06:50.785Z,97275.53
2019-04-27T05:07:40.110Z,97266.42
2019-04-27T05:08:31.411Z,97263.67
2019-04-27T05:09:21.282Z,97271.55
2019-04-27T05:10:11.971Z,97267.44
2019-04-27T05:11:02.433Z,97274.78
2019-04-27T05:11:52.614Z,97270.91
2019-04-27T05:12:42.906Z,97265.08
2019-04-27T05:13:34.169Z,97271.61
2019-04-27T05:14:23.809Z,97278.71
2019-04-27T05:15:13.871Z,97273.47
2019-04-27T05:16:04.353Z,97278.05
2019-04-27T05:16:54.503Z,97275.55
2019-04-27T05:17:44.677Z,97278.77
2019-04-27T05:18:34.711Z,97284.72
2019-04-27T05:19:25.017Z,97283.34
2019-04-27T05:20:29.529Z,97286.09
2019-04-27T05:21:24.341Z,97272.37
2019-04-27T05:22:14.471Z,97278.91
2019-04-27T05:23:05.037Z,97274.23
2019-04-27T05:23:56.376Z,97291.50
2019-04-27T05:24:49.307Z,97289.32
2019-04-27T05:25:39.885Z,97292.06
2019-04-27T05:26:29.768Z,97294.80
2019-04-27T05:27:20.171Z,97288.75
2019-04-27T05:28:11.281Z,97281.09
2019-04-27T05:29:02.208Z,97282.45
2019-04-27T05:29:53.059Z,97288.51
2019-04-27T05:30:43.050Z,97287.70
2019-04-27T05:31:33.355Z,97286.90
2019-04-27T05:32:23.183Z,97281.97
2019-04-27T05:33:13.687Z,97295.13
2019-04-27T05:34:06.716Z,97284.95
2019-04-27T05:34:53.925Z,97285.77
2019-04-27T05:35:43.613Z,97285.77
2019-04-27T05:36:33.663Z,97291.01
2019-04-27T05:37:28.012Z,97286.33
2019-04-27T05:38:14.443Z,97274.80
2019-04-27T05:39:05.680Z,97275.60
2019-04-27T05:39:58.803Z,97280.73
2019-04-27T05:40:46.908Z,97271.94
2019-04-27T05:41:37.732Z,97274.69
2019-04-27T05:42:28.663Z,97275.49
2019-04-27T05:43:19.274Z,97277.42
2019-04-27T05:44:26.179Z,97282.59
2019-04-27T05:45:53.182Z,97276.55
2019-04-27T05:46:59.118Z,97285.02
2019-04-27T05:48:15.725Z,97280.55
2019-04-27T05:49:09.401Z,97284.09
2019-04-27T05:50:09.063Z,97275.06
2019-04-27T05:51:01.758Z,97279.74
2019-04-27T05:51:49.946Z,97280.34
2019-04-27T05:52:40.983Z,97279.17
2019-04-27T05:53:29.422Z,97277.00
2019-04-27T05:54:20.237Z,97279.98
2019-04-27T05:55:10.521Z,97283.53
2019-04-27T05:56:00.685Z,97276.36
2019-04-27T05:56:50.369Z,97277.97
2019-04-27T05:57:40.088Z,97279.55
2019-04-27T05:58:29.993Z,97285.28
2019-04-27T05:59:20.571Z,97279.23
2019-04-27T06:00:10.746Z,97276.17
2019-04-27T06:01:01.239Z,97281.30
2019-04-27T06:01:51.191Z,97282.35
2019-04-27T06:02:42.257Z,97286.71
2019-04-27T06:03:32.346Z,97281.92
2019-04-27T06:04:22.348Z,97280.47
2019-04-27T06:05:12.941Z,97280.12
2019-04-27T06:06:02.784Z,97277.29
2019-04-27T06:06:52.967Z,97284.84
2019-04-27T06:07:43.359Z,97281.99
2019-04-27T06:08:33.664Z,97267.70
2019-04-27T06:09:23.850Z,97270.61
2019-04-27T06:10:14.934Z,97263.95
2019-04-27T06:11:05.327Z,97263.88
2019-04-27T06:11:56.100Z,97274.98
2019-04-27T06:12:45.961Z,97263.89
2019-04-27T06:13:36.245Z,97261.06
2019-04-27T06:14:26.899Z,97265.63
2019-04-27T06:15:17.290Z,97254.56
2019-04-27T06:16:09.410Z,97261.14
2019-04-27T06:16:59.669Z,97265.37
2019-04-27T06:17:49.754Z,97254.84
2019-04-27T06:18:39.655Z,97260.02
2019-04-27T06:19:30.255Z,97252.25
2019-04-27T06:20:20.720Z,97249.30
2019-04-27T06:21:11.601Z,97257.67
2019-04-27T06:22:01.800Z,97254.48
2019-04-27T06:22:51.668Z,97249.11
2019-04-27T06:23:42.920Z,97253.02
2019-04-27T06:24:33.746Z,97245.71
2019-04-27T06:25:24.543Z,97254.88
2019-04-27T06:26:14.804Z,97254.67
2019-04-27T06:27:05.312Z,97255.84
2019-04-27T06:27:55.568Z,97250.22
2019-04-27T06:28:45.551Z,97248.07
2019-04-27T06:29:36.151Z,97253.69
2019-04-27T06:30:26.526Z,97253.72
2019-04-27T06:31:17.004Z,97252.69
2019-04-27T06:32:09.013Z,97253.28
2019-04-27T06:32:59.332Z,97245.39
2019-04-27T06:33:49.596Z,97244.94
2019-04-27T06:34:39.051Z,97258.70
2019-04-27T06:35:28.806Z,97248.06
2019-04-27T06:36:19.883Z,97249.55
2019-04-27T06:37:10.170Z,97247.71
2019-04-27T06:38:00.531Z,97250.58
2019-04-27T06:38:50.937Z,97247.73
2019-04-27T06:39:41.004Z,97250.02
2019-04-27T06:40:35.344Z,97254.02
2019-04-27T06:41:23.245Z,97244.53
2019-04-27T06:42:18.173Z,97247.16
2019-04-27T06:43:03.475Z,97245.31
2019-04-27T06:43:53.670Z,97241.66
2019-04-27T06:44:43.706Z,97242.34
2019-04-27T06:45:34.610Z,97247.72
2019-04-27T06:46:25.282Z,97241.30
2019-04-27T06:47:15.915Z,97238.45
2019-04-27T06:48:06.047Z,97250.74
2019-04-27T06:48:56.120Z,97240.17
2019-04-27T06:49:45.916Z,97242.02
2019-04-27T06:50:38.847Z,97249.14
2019-04-27T06:51:28.530Z,97239.94
2019-04-27T06:52:18.698Z,97236.05
2019-04-27T06:53:09.067Z,97259.68
2019-04-27T06:53:59.501Z,97245.59
2019-04-27T06:54:49.310Z,97257.97
2019-04-27T06:55:39.296Z,97250.48
2019-04-27T06:56:29.934Z,97257.97
2019-04-27T06:57:19.830Z,97256.13
2019-04-27T06:58:10.193Z,97255.08
2019-04-27T06:59:00.395Z,97260.95
2019-04-27T06:59:50.678Z,97258.53
2019-04-27T07:00:40.032Z,97242.16
2019-04-27T07:01:31.415Z,97257.15
2019-04-27T07:02:22.176Z,97260.56
2019-04-27T07:03:12.608Z,97260.22
2019-04-27T07:04:03.427Z,97256.23
2019-04-27T07:04:53.519Z,97253.12
2019-04-27T07:05:43.849Z,97252.98
2019-04-27T07:06:34.043Z,97266.39
2019-04-27T07:07:24.180Z,97255.28
2019-04-27T07:08:14.959Z,97250.48
2019-04-27T07:09:07.048Z,97260.56
2019-04-27T07:09:56.849Z,97273.39
2019-04-27T07:10:49.023Z,97270.73
2019-04-27T07:11:39.524Z,97266.17
2019-04-27T07:12:29.759Z,97269.82
2019-04-27T07:13:19.910Z,97269.94
2019-04-27T07:14:11.713Z,97259.84
2019-04-27T07:15:01.977Z,97268.22
2019-04-27T07:15:52.901Z,97274.61
2019-04-27T07:16:43.490Z,97270.02
2019-04-27T07:17:33.582Z,97276.44
2019-04-27T07:18:23.349Z,97272.08
2019-04-27T07:19:14.428Z,97273.45
2019-04-27T07:20:04.423Z,97263.02
2019-04-27T07:20:55.308Z,97259.70
2019-04-27T07:21:45.220Z,97269.56
2019-04-27T07:22:35.647Z,97270.13
2019-04-27T07:23:25.991Z,97264.63
2019-04-27T07:24:16.402Z,97257.77
2019-04-27T07:25:06.730Z,97269.00
2019-04-27T07:25:56.724Z,97269.80
2019-04-27T07:26:48.731Z,97267.83
2019-04-27T07:27:39.308Z,97271.95
2019-04-27T07:28:28.664Z,97271.95
2019-04-27T07:29:19.422Z,97267.05
2019-04-27T07:30:11.780Z,97258.00
2019-04-27T07:30:58.748Z,97266.25
2019-04-27T07:31:49.798Z,97270.94
2019-04-27T07:32:39.566Z,97271.51
2019-04-27T07:33:29.741Z,97278.71
2019-04-27T07:34:20.093Z,97264.16
2019-04-27T07:35:10.708Z,97269.66
2019-04-27T07:36:00.856Z,97269.45
2019-04-27T07:36:51.743Z,97267.27
2019-04-27T07:37:42.176Z,97269.21
2019-04-27T07:38:32.027Z,97273.91
2019-04-27T07:39:22.975Z,97272.29
2019-04-27T07:40:14.078Z,97262.43
2019-04-27T07:41:04.885Z,97264.61
2019-04-27T07:41:55.113Z,97268.97
2019-04-27T07:42:45.909Z,97273.34
2019-04-27T07:43:41.251Z,97266.46
2019-04-27T07:44:39.085Z,97268.28
2019-04-27T07:45:34.566Z,97264.63
2019-04-27T07:46:24.807Z,97270.38
2019-04-27T07:47:19.812Z,97264.52
2019-04-27T07:48:10.873Z,97271.06
2019-04-27T07:49:01.328Z,97274.05
2019-04-27T07:49:51.605Z,97266.84
2019-04-27T07:50:41.765Z,97268.42
2019-04-27T07:51:34.358Z,97267.05
2019-04-27T07:52:23.080Z,97269.47
2019-04-27T07:53:12.820Z,97272.69
2019-04-27T07:54:02.563Z,97269.58
2019-04-27T07:54:52.246Z,97269.02
2019-04-27T07:55:42.473Z,97270.63
2019-04-27T07:56:32.566Z,97270.63
2019-04-27T07:57:22.760Z,97273.05
2019-04-27T07:58:13.595Z,97275.43
2019-04-27T07:59:03.414Z,97277.05
2019-04-27T07:59:54.526Z,97273.73
2019-04-27T08:00:44.508Z,97276.72
2019-04-27T08:01:34.961Z,97266.52
2019-04-27T08:02:24.983Z,97271.42
2019-04-27T08:03:15.423Z,97267.77
2019-04-27T08:04:05.988Z,97280.95
2019-04-27T08:04:57.471Z,97273.38
2019-04-27T08:05:49.146Z,97266.17
2019-04-27T08:06:38.955Z,97270.53
2019-04-27T08:07:29.422Z,97266.52
2019-04-27T08:08:20.086Z,97261.70
2019-04-27T08:09:10.954Z,97259.06
2019-04-27T08:10:01.935Z,97260.58
2019-04-27T08:10:51.829Z,97265.86
2019-04-27T08:11:42.445Z,97266.77
2019-04-27T08:12:33.418Z,97259.43
2019-04-27T08:13:23.926Z,97260.61
2019-04-27T08:14:14.931Z,97263.34
2019-04-27T08:15:05.196Z,97268.98
2019-04-27T08:15:55.987Z,97253.58
2019-04-27T08:16:46.448Z,97262.78
2019-04-27T08:17:36.636Z,97260.13
2019-04-27T08:18:27.003Z,97263.45
2019-04-27T08:19:19.257Z,97271.59
2019-04-27T08:20:09.219Z,97267.80
2019-04-27T08:20:59.989Z,97265.37
2019-04-27T08:21:50.150Z,97260.78
2019-04-27T08:22:40.790Z,97258.72
2019-04-27T08:23:31.800Z,97262.16
2019-04-27T08:24:22.576Z,97258.45
2019-04-27T08:25:12.671Z,97263.52
2019-04-27T08:26:04.428Z,97266.72
2019-04-27T08:26:59.340Z,97271.52
2019-04-27T08:28:06.035Z,97262.34
2019-04-27T08:29:16.010Z,97261.64
2019-04-27T08:30:39.391Z,97266.58
2019-04-27T08:31:33.185Z,97267.27
2019-04-27T08:32:33.460Z,97260.73
2019-04-27T08:33:23.844Z,97267.95
2019-04-27T08:34:32.698Z,97262.01
2019-04-27T08:35:27.108Z,97258.55
2019-04-27T08:36:19.038Z,97256.97
2019-04-27T08:37:40.404Z,97267.52
2019-04-27T08:38:31.953Z,97267.66
2019-04-27T08:39:23.489Z,97261.68
2019-04-27T08:40:13.887Z,97259.63
2019-04-27T08:41:05.871Z,97272.13
2019-04-27T08:42:15.607Z,97264.80
2019-04-27T08:43:29.974Z,97261.81
2019-04-27T08:44:21.271Z,97273.17
2019-04-27T08:45:11.838Z,97261.14
2019-04-27T08:46:05.188Z,97261.14
2019-04-27T08:46:56.390Z,97271.36
2019-04-27T08:47:47.040Z,97265.04
2019-04-27T08:48:39.293Z,97264.00
2019-04-27T08:49:29.265Z,97265.37
2019-04-27T08:50:19.136Z,97272.83
2019-04-27T08:51:09.712Z,97269.74
2019-04-27T08:52:01.767Z,97274.44
2019-04-27T08:52:50.321Z,97266.98
2019-04-27T08:53:40.401Z,97273.88
2019-04-27T08:54:31.006Z,97270.18
2019-04-27T08:55:21.931Z,97266.28
2019-04-27T08:56:13.603Z,97279.25
2019-04-27T08:57:03.360Z,97271.79
2019-04-27T08:57:53.503Z,97279.72
2019-04-27T08:58:43.592Z,97277.53
2019-04-27T08:59:33.685Z,97272.02
2019-04-27T09:00:24.227Z,97270.08
2019-04-27T09:01:14.630Z,97277.20
2019-04-27T09:02:04.459Z,97274.44
2019-04-27T09:02:54.643Z,97271.33
2019-04-27T09:03:44.487Z,97279.38
2019-04-27T09:04:39.251Z,97273.88
2019-04-27T09:05:39.662Z,97280.96
2019-04-27T09:06:33.810Z,97268.00
2019-04-27T09:07:43.149Z,97275.69
2019-04-27T09:08:51.417Z,97271.79
2019-04-27T09:09:45.375Z,97275.59
2019-04-27T09:10:44.177Z,97273.61
2019-04-27T09:11:59.476Z,97271.66
2019-04-27T09:13:06.309Z,97268.33
2019-04-27T09:14:19.390Z,97270.52
2019-04-27T09:15:19.248Z,97267.19
2019-04-27T09:16:16.227Z,97270.41
2019-04-27T09:17:19.391Z,97268.23
2019-04-27T09:18:09.290Z,97273.37
2019-04-27T09:19:05.263Z,97271.99
2019-04-27T09:20:24.253Z,97265.10
2019-04-27T09:21:48.566Z,97261.44
2019-04-27T09:22:42.156Z,97267.19
2019-04-27T09:23:38.848Z,97264.63
2019-04-27T09:25:01.818Z,97263.25
2019-04-27T09:25:52.520Z,97265.67
2019-04-27T09:27:14.030Z,97265.67
2019-04-27T09:28:29.436Z,97265.67
2019-04-27T09:29:19.740Z,97273.36
2019-04-27T09:30:32.505Z,97275.21
2019-04-27T09:31:22.819Z,97268.52
2019-04-27T09:32:14.552Z,97266.00
2019-04-27T09:33:06.710Z,97272.89
2019-04-27T09:33:57.515Z,97268.76
2019-04-27T09:34:48.835Z,97263.72
2019-04-27T09:35:38.578Z,97265.89
2019-04-27T09:36:29.048Z,97263.92
2019-04-27T09:37:19.334Z,97265.53
2019-04-27T09:38:09.684Z,97261.62
2019-04-27T09:38:59.339Z,97270.94
2019-04-27T09:39:49.086Z,97263.67
2019-04-27T09:40:40.042Z,97260.58
2019-04-27T09:41:32.625Z,97261.25
2019-04-27T09:42:32.461Z,97260.00
2019-04-27T09:43:22.845Z,97254.01
2019-04-27T09:44:12.699Z,97264.79
2019-04-27T09:45:11.491Z,97255.23
2019-04-27T09:46:11.742Z,97249.24
2019-04-27T09:47:01.735Z,97259.55
2019-04-27T09:47:56.318Z,97257.84
2019-04-27T09:48:51.895Z,97254.16
2019-04-27T09:52:47.328Z,97257.97
2019-04-27T09:53:38.466Z,97253.05
2019-04-27T09:54:29.330Z,97246.98
2019-04-27T09:55:21.182Z,97252.97
2019-04-27T09:56:12.185Z,97249.55
2019-04-27T09:57:03.275Z,97256.31
2019-04-27T09:57:54.502Z,97244.63
2019-04-27T09:58:44.989Z,97246.94
2019-04-27T09:59:37.728Z,97249.47
2019-04-27T10:00:27.756Z,97253.83
2019-04-27T10:01:18.097Z,97252.66
2019-04-27T10:02:19.509Z,97244.28
2019-04-27T10:03:15.009Z,97248.51
2019-04-27T10:04:06.670Z,97246.89
2019-04-27T10:04:57.408Z,97244.12
2019-04-27T10:05:48.642Z,97242.92
2019-04-27T10:14:31.123Z,97236.88
2019-04-27T10:15:21.686Z,97234.74
2019-04-27T10:16:12.749Z,97235.63
2019-04-27T10:17:02.508Z,97236.89
2019-04-27T10:17:52.938Z,97235.02
2019-04-27T10:18:43.070Z,97230.03
2019-04-27T10:19:34.289Z,97229.73
2019-04-27T10:20:25.172Z,97230.50
2019-04-27T10:21:16.509Z,97231.03
2019-04-27T10:22:06.867Z,97219.92
2019-04-27T10:22:57.182Z,97219.87
2019-04-27T10:23:47.156Z,97225.58
2019-04-27T10:24:36.885Z,97218.59
2019-04-27T10:25:28.095Z,97218.77
2019-04-27T10:26:18.744Z,97219.52
2019-04-27T10:27:08.425Z,97217.16
2019-04-27T10:27:58.192Z,97221.79
2019-04-27T10:28:49.306Z,97215.85
2019-04-27T10:29:39.646Z,97219.33
2019-04-27T10:30:30.506Z,97224.00
2019-04-27T10:31:20.579Z,97220.95
2019-04-27T10:32:11.124Z,97215.48
2019-04-27T10:33:01.673Z,97217.31
2019-04-27T10:33:52.724Z,97210.41
2019-04-27T10:34:46.199Z,97208.86
2019-04-27T10:35:36.625Z,97209.44
2019-04-27T10:36:40.103Z,97204.72
2019-04-27T10:37:30.788Z,97209.89
2019-04-27T10:38:21.665Z,97214.03
2019-04-27T10:39:13.544Z,97206.55